Time;durP1;ratioP1;P1;durP2;ratioP2;P2;SDS_P1;SDS_P2;PMS_P1;PMS_P2;Temp;Humidity;BMP_temperature;BMP_pressure;BME280_temperature;BME280_humidity;BME280_pressure;Samples;Min_cycle;Max_cycle;Signal;HPM_P1;HPM_P2
2023/04/07 00:00:36;;;;;;;87.97;39.17;;;10.00;1.00;;;;;;4937634;29;20476;-80
2023/04/07 00:03:05;;;;;;;81.83;37.37;;;10.10;1.00;;;;;;4939129;29;20649;-80
2023/04/07 00:05:31;;;;;;;86.67;37.20;;;10.10;1.00;;;;;;4939721;29;20197;-80
2023/04/07 00:07:57;;;;;;;85.27;37.33;;;10.10;1.00;;;;;;4940030;29;20473;-79
2023/04/07 00:10:23;;;;;;;87.27;38.90;;;10.10;1.00;;;;;;4934566;29;20261;-80
2023/04/07 00:12:51;;;;;;;87.53;37.40;;;10.10;1.00;;;;;;4933043;29;20210;-80
2023/04/07 00:15:22;;;;;;;90.23;39.67;;;10.10;1.00;;;;;;4938589;29;20433;-80
2023/04/07 00:17:48;;;;;;;91.00;38.40;;;10.10;1.00;;;;;;4936566;29;20462;-79
2023/04/07 00:20:16;;;;;;;98.00;40.37;;;10.10;1.00;;;;;;4933771;29;20809;-79
2023/04/07 00:22:42;;;;;;;92.07;39.70;;;10.00;1.00;;;;;;4935846;29;20277;-79
2023/04/07 00:25:08;;;;;;;81.33;38.27;;;10.10;1.00;;;;;;4933281;29;20481;-79
2023/04/07 00:27:33;;;;;;;86.47;37.90;;;10.00;1.00;;;;;;4937051;29;20272;-80
2023/04/07 00:29:59;;;;;;;78.67;38.17;;;10.00;1.00;;;;;;4928791;29;20458;-79
2023/04/07 00:32:25;;;;;;;69.50;34.97;;;10.00;1.00;;;;;;4937494;29;20220;-80
2023/04/07 00:34:50;;;;;;;79.37;35.27;;;10.00;1.00;;;;;;4937637;29;20237;-80
2023/04/07 00:37:16;;;;;;;80.07;34.37;;;10.00;1.00;;;;;;4939990;29;20763;-80
2023/04/07 00:39:41;;;;;;;78.80;35.07;;;10.00;1.00;;;;;;4934465;29;20183;-79
2023/04/07 00:42:10;;;;;;;71.57;32.37;;;10.00;1.00;;;;;;4945890;28;20186;-80
2023/04/07 00:44:38;;;;;;;68.47;33.20;;;10.00;1.00;;;;;;4930243;29;20186;-79
2023/04/07 00:47:04;;;;;;;68.17;33.80;;;10.00;1.00;;;;;;4934416;29;20452;-79
2023/04/07 00:49:30;;;;;;;73.20;32.47;;;10.00;1.00;;;;;;4939177;29;20949;-78
2023/04/07 00:52:00;;;;;;;79.70;33.47;;;10.00;1.00;;;;;;4939402;29;20598;-79
2023/04/07 00:54:32;;;;;;;69.40;31.50;;;10.00;1.00;;;;;;4926300;29;20858;-79
2023/04/07 00:56:57;;;;;;;70.67;34.00;;;10.00;1.00;;;;;;4927934;29;20429;-79
2023/04/07 00:59:31;;;;;;;65.23;30.97;;;10.00;1.00;;;;;;4938808;29;20513;-80
2023/04/07 01:02:00;;;;;;;66.43;32.77;;;10.00;1.00;;;;;;4944128;29;20550;-81
2023/04/07 01:04:40;;;;;;;60.97;30.13;;;9.90;1.00;;;;;;4946327;29;20446;-81
2023/04/07 01:07:14;;;;;;;58.53;31.03;;;9.90;1.00;;;;;;4946947;29;20449;-80
2023/04/07 01:10:02;;;;;;;62.90;30.83;;;9.90;1.00;;;;;;4941342;29;20453;-80
2023/04/07 01:12:54;;;;;;;59.20;30.80;;;9.90;1.00;;;;;;4957103;29;20457;-81
2023/04/07 01:15:25;;;;;;;55.40;30.10;;;10.00;1.00;;;;;;4957925;28;20442;-81
2023/04/07 01:17:57;;;;;;;69.40;31.90;;;10.00;1.00;;;;;;4941901;29;20562;-80
2023/04/07 01:20:30;;;;;;;66.87;30.40;;;10.00;1.00;;;;;;4939687;29;20488;-81
2023/04/07 01:23:02;;;;;;;57.87;28.40;;;10.00;1.00;;;;;;4940443;29;20445;-80
2023/04/07 01:26:03;;;;;;;62.23;30.40;;;10.00;1.00;;;;;;4944511;29;20438;-80
2023/04/07 01:28:40;;;;;;;62.40;28.53;;;10.00;1.00;;;;;;4958983;28;20461;-80
2023/04/07 01:31:09;;;;;;;56.50;28.27;;;10.00;1.00;;;;;;4937505;29;20455;-79
2023/04/07 01:33:38;;;;;;;58.23;30.57;;;10.00;1.00;;;;;;4947915;29;20501;-80
2023/04/07 01:36:06;;;;;;;58.73;28.40;;;9.90;1.00;;;;;;4962057;28;20818;-81
2023/04/07 01:38:34;;;;;;;56.50;28.70;;;10.00;1.00;;;;;;4939327;29;20457;-80
2023/04/07 01:41:01;;;;;;;60.43;29.60;;;10.00;1.00;;;;;;4939810;29;20452;-81
2023/04/07 01:43:28;;;;;;;63.90;30.97;;;10.00;1.00;;;;;;4936402;29;20446;-80
2023/04/07 01:45:57;;;;;;;54.00;28.33;;;10.00;1.00;;;;;;4940950;29;20448;-81
2023/04/07 01:48:28;;;;;;;58.90;30.27;;;10.00;1.00;;;;;;4945306;29;20488;-80
2023/04/07 01:50:55;;;;;;;57.67;28.20;;;10.00;1.00;;;;;;4944088;29;20469;-81
2023/04/07 01:53:22;;;;;;;56.07;29.60;;;10.00;1.00;;;;;;4945275;29;20473;-81
2023/04/07 01:55:53;;;;;;;47.13;26.40;;;10.00;1.00;;;;;;4933901;29;20497;-81
2023/04/07 01:58:21;;;;;;;52.53;28.20;;;10.00;1.00;;;;;;4946323;29;20520;-80
2023/04/07 02:00:49;;;;;;;55.07;27.53;;;10.00;1.00;;;;;;4947660;29;20468;-82
2023/04/07 02:03:21;;;;;;;52.57;26.60;;;10.00;1.00;;;;;;4947539;29;20433;-81
2023/04/07 02:05:53;;;;;;;44.80;25.63;;;10.00;1.00;;;;;;4951630;28;20450;-81
2023/04/07 02:08:24;;;;;;;51.70;26.80;;;10.00;1.00;;;;;;4944079;29;20508;-81
2023/04/07 02:10:54;;;;;;;48.23;27.30;;;10.00;1.00;;;;;;4945719;29;20464;-81
2023/04/07 02:13:20;;;;;;;47.30;26.80;;;10.00;1.00;;;;;;4946185;29;20476;-81
2023/04/07 02:15:49;;;;;;;45.03;26.40;;;10.00;1.00;;;;;;4938517;29;20442;-81
2023/04/07 02:18:17;;;;;;;43.40;25.33;;;10.00;1.00;;;;;;4938088;29;20530;-81
2023/04/07 02:20:46;;;;;;;52.93;27.30;;;10.00;1.00;;;;;;4941219;29;20452;-80
2023/04/07 02:23:12;;;;;;;43.53;26.60;;;10.00;1.00;;;;;;4945704;29;20487;-80
2023/04/07 02:25:45;;;;;;;44.70;24.70;;;9.90;1.00;;;;;;4941047;29;20559;-81
2023/04/07 02:28:11;;;;;;;43.97;25.30;;;9.90;1.00;;;;;;4931561;29;21054;-80
2023/04/07 02:30:38;;;;;;;48.47;24.90;;;9.90;1.00;;;;;;4937787;29;20462;-80
2023/04/07 02:33:07;;;;;;;42.53;26.37;;;9.80;1.00;;;;;;4941885;29;20222;-81
2023/04/07 02:35:35;;;;;;;48.27;26.60;;;9.80;1.00;;;;;;4944329;29;20446;-80
2023/04/07 02:38:03;;;;;;;41.83;24.73;;;9.80;1.00;;;;;;4944173;29;21003;-79
2023/04/07 02:40:29;;;;;;;44.00;26.50;;;9.80;1.00;;;;;;4944556;29;20431;-79
2023/04/07 02:42:54;;;;;;;46.53;27.40;;;9.80;1.00;;;;;;4940259;29;20448;-81
2023/04/07 02:45:20;;;;;;;46.50;28.17;;;9.80;1.00;;;;;;4943214;29;20473;-80
2023/04/07 02:47:46;;;;;;;49.30;27.60;;;9.80;1.00;;;;;;4937040;29;20213;-79
2023/04/07 02:50:16;;;;;;;43.13;24.37;;;9.80;1.00;;;;;;4938522;29;20194;-80
2023/04/07 02:52:42;;;;;;;48.57;27.03;;;9.80;1.00;;;;;;4926536;29;20475;-79
2023/04/07 02:55:10;;;;;;;40.43;25.90;;;9.80;1.00;;;;;;4935722;29;20521;-80
2023/04/07 02:57:38;;;;;;;40.07;23.33;;;9.70;1.00;;;;;;4932688;29;20241;-80
2023/04/07 03:00:04;;;;;;;38.70;24.17;;;9.70;1.00;;;;;;4930633;29;20464;-79
2023/04/07 03:02:30;;;;;;;46.03;26.17;;;9.70;1.00;;;;;;4924829;29;20451;-81
2023/04/07 03:04:56;;;;;;;38.93;24.60;;;9.70;1.00;;;;;;4931245;29;20438;-80
2023/04/07 03:07:26;;;;;;;40.60;24.07;;;9.70;1.00;;;;;;4932961;29;20213;-79
2023/04/07 03:09:59;;;;;;;40.60;24.47;;;9.70;1.00;;;;;;4936861;29;20196;-79
2023/04/07 03:12:27;;;;;;;35.33;23.03;;;9.70;1.00;;;;;;4924329;29;20462;-79
2023/04/07 03:14:52;;;;;;;44.17;24.87;;;9.60;1.00;;;;;;4935666;29;20437;-79
2023/04/07 03:17:26;;;;;;;49.30;25.87;;;9.60;1.00;;;;;;4934957;29;20450;-79
2023/04/07 03:19:51;;;;;;;41.00;25.57;;;9.60;1.00;;;;;;4926100;29;20182;-80
2023/04/07 03:22:17;;;;;;;37.10;23.37;;;9.70;1.00;;;;;;4926801;29;20437;-80
2023/04/07 03:24:45;;;;;;;46.97;26.23;;;9.60;1.00;;;;;;4934579;29;20266;-80
2023/04/07 03:27:11;;;;;;;44.83;25.00;;;9.60;1.00;;;;;;4936020;29;20673;-80
2023/04/07 03:29:37;;;;;;;44.13;25.37;;;9.70;1.00;;;;;;4934398;29;20442;-80
2023/04/07 03:32:08;;;;;;;42.73;24.70;;;9.70;1.00;;;;;;4936392;29;20266;-79
2023/04/07 03:34:34;;;;;;;40.10;23.80;;;9.70;1.00;;;;;;4928492;29;20662;-81
2023/04/07 03:37:00;;;;;;;42.70;25.07;;;9.70;1.00;;;;;;4936817;29;20460;-78
2023/04/07 03:39:25;;;;;;;41.10;25.20;;;9.70;1.00;;;;;;4932305;29;20454;-79
2023/04/07 03:41:53;;;;;;;38.93;21.93;;;9.70;1.00;;;;;;4935291;29;20778;-79
2023/04/07 03:44:22;;;;;;;43.78;24.13;;;9.70;1.00;;;;;;4941161;28;20201;-80
2023/04/07 03:46:52;;;;;;;35.00;21.90;;;9.70;1.00;;;;;;4920494;29;20183;-80
2023/04/07 03:49:18;;;;;;;37.80;21.90;;;9.60;1.00;;;;;;4933606;29;20544;-80
2023/04/07 03:51:43;;;;;;;30.73;19.30;;;9.60;1.00;;;;;;4937397;29;20449;-79
2023/04/07 03:54:09;;;;;;;28.53;18.10;;;9.60;1.00;;;;;;4931802;29;20216;-80
2023/04/07 03:56:36;;;;;;;28.93;18.10;;;9.60;1.00;;;;;;4930968;29;20189;-79
2023/04/07 03:59:04;;;;;;;33.57;19.27;;;9.60;1.00;;;;;;4942973;28;20486;-79
2023/04/07 04:01:32;;;;;;;30.80;18.80;;;9.60;1.00;;;;;;4936379;29;20446;-79
2023/04/07 04:04:01;;;;;;;32.33;21.63;;;9.60;1.00;;;;;;4936003;29;20517;-80
2023/04/07 04:06:27;;;;;;;33.50;18.40;;;9.60;1.00;;;;;;4931779;29;20437;-80
2023/04/07 04:08:55;;;;;;;32.23;19.30;;;9.60;1.00;;;;;;4937021;29;20464;-79
2023/04/07 04:11:23;;;;;;;29.00;19.23;;;9.60;1.00;;;;;;4932124;29;20188;-79
2023/04/07 04:13:56;;;;;;;31.77;19.80;;;9.60;1.00;;;;;;4930276;29;20667;-79
2023/04/07 04:16:27;;;;;;;31.10;19.63;;;9.60;1.00;;;;;;4933893;29;20446;-78
2023/04/07 04:18:52;;;;;;;28.20;18.27;;;9.60;1.00;;;;;;4937999;29;20547;-80
2023/04/07 04:21:23;;;;;;;33.30;20.00;;;9.60;1.00;;;;;;4938982;29;20437;-80
2023/04/07 04:23:48;;;;;;;26.27;17.73;;;9.60;1.00;;;;;;4932515;29;20206;-80
2023/04/07 04:26:17;;;;;;;30.00;18.73;;;9.60;1.00;;;;;;4928819;29;20468;-80
2023/04/07 04:28:45;;;;;;;30.27;19.80;;;9.60;1.00;;;;;;4938368;29;20223;-80
2023/04/07 04:31:11;;;;;;;29.00;19.00;;;9.60;1.00;;;;;;4936847;29;20445;-80
2023/04/07 04:33:42;;;;;;;30.47;18.87;;;9.50;1.00;;;;;;4949501;28;20541;-81
2023/04/07 04:36:07;;;;;;;31.73;20.13;;;9.60;1.00;;;;;;4934809;29;20194;-80
2023/04/07 04:38:33;;;;;;;29.93;19.37;;;9.60;1.00;;;;;;4960233;28;20453;-81
2023/04/07 04:40:59;;;;;;;27.07;18.40;;;9.60;1.00;;;;;;4950511;29;20220;-82
2023/04/07 04:43:24;;;;;;;27.87;18.13;;;9.60;1.00;;;;;;4948389;29;20908;-82
2023/04/07 04:45:50;;;;;;;25.23;17.50;;;9.60;1.00;;;;;;4953924;29;20192;-80
2023/04/07 04:48:16;;;;;;;30.03;18.80;;;9.60;1.00;;;;;;4945757;29;20208;-80
2023/04/07 04:50:42;;;;;;;31.53;19.00;;;9.60;1.00;;;;;;4950179;29;20441;-81
2023/04/07 04:53:11;;;;;;;25.97;17.10;;;9.60;1.00;;;;;;4949499;29;20252;-79
2023/04/07 04:55:39;;;;;;;30.27;16.83;;;9.70;1.00;;;;;;4951886;29;20440;-81
2023/04/07 04:58:05;;;;;;;21.50;14.40;;;9.70;1.00;;;;;;4948813;29;20462;-80
2023/04/07 05:00:34;;;;;;;27.50;15.50;;;9.70;1.00;;;;;;4953682;29;20460;-80
2023/04/07 05:03:05;;;;;;;26.60;15.40;;;9.60;1.00;;;;;;4941987;29;20194;-80
2023/04/07 05:05:30;;;;;;;25.10;15.30;;;9.60;1.00;;;;;;4953431;29;20459;-81
2023/04/07 05:07:56;;;;;;;24.70;15.60;;;9.60;1.00;;;;;;4953083;29;21017;-81
2023/04/07 05:10:24;;;;;;;24.37;14.80;;;9.60;1.00;;;;;;4944176;29;20276;-80
2023/04/07 05:12:50;;;;;;;22.77;12.60;;;9.60;1.00;;;;;;4951698;29;20241;-81
2023/04/07 05:15:15;;;;;;;17.80;10.93;;;9.60;1.00;;;;;;4951253;29;20437;-81
2023/04/07 05:17:41;;;;;;;17.40;11.70;;;9.50;1.00;;;;;;4945414;29;20465;-80
2023/04/07 05:20:09;;;;;;;19.60;12.00;;;9.50;1.00;;;;;;4950053;29;20190;-81
2023/04/07 05:22:35;;;;;;;19.37;11.37;;;9.50;1.00;;;;;;4953437;29;20193;-81
2023/04/07 05:25:01;;;;;;;15.53;9.27;;;9.50;1.00;;;;;;4949702;29;20558;-81
2023/04/07 05:27:29;;;;;;;19.83;10.70;;;9.50;1.00;;;;;;4948188;29;20906;-81
2023/04/07 05:29:54;;;;;;;12.00;8.30;;;9.40;1.00;;;;;;4949360;29;20816;-81
2023/04/07 05:32:20;;;;;;;13.60;7.67;;;9.40;1.00;;;;;;4960391;28;20549;-82
2023/04/07 05:34:45;;;;;;;11.80;6.80;;;9.50;1.00;;;;;;4950972;29;20182;-81
2023/04/07 05:37:16;;;;;;;15.37;7.03;;;9.40;1.00;;;;;;4950966;29;20190;-81
2023/04/07 05:39:41;;;;;;;11.80;7.33;;;9.40;1.00;;;;;;4948873;29;20185;-81
2023/04/07 05:42:07;;;;;;;11.10;6.60;;;9.40;1.00;;;;;;4948993;29;20441;-81
2023/04/07 05:44:33;;;;;;;11.93;8.17;;;9.40;1.00;;;;;;4956144;28;20208;-81
2023/04/07 05:47:04;;;;;;;11.03;7.17;;;9.50;1.00;;;;;;4949563;29;20197;-81
2023/04/07 05:49:32;;;;;;;18.07;7.70;;;9.50;1.00;;;;;;4948437;29;20185;-82
2023/04/07 05:51:58;;;;;;;9.63;6.37;;;9.50;1.00;;;;;;4944831;29;20449;-81
2023/04/07 05:54:23;;;;;;;13.10;8.20;;;9.60;1.00;;;;;;4951040;29;20723;-81
2023/04/07 05:56:49;;;;;;;10.53;7.70;;;9.60;1.00;;;;;;4948669;29;20238;-81
2023/04/07 05:59:17;;;;;;;13.73;8.57;;;9.60;1.00;;;;;;4950069;29;20222;-80
2023/04/07 06:01:43;;;;;;;12.00;7.40;;;9.60;1.00;;;;;;4954894;28;20826;-81
2023/04/07 06:04:08;;;;;;;13.13;7.50;;;9.70;1.00;;;;;;4946436;29;20454;-80
2023/04/07 06:06:34;;;;;;;13.00;7.67;;;9.80;1.00;;;;;;4948528;29;20186;-81
2023/04/07 06:09:00;;;;;;;14.67;8.23;;;9.80;1.00;;;;;;4950249;29;20799;-82
2023/04/07 06:11:26;;;;;;;13.87;7.90;;;9.90;1.00;;;;;;4944239;29;20205;-81
2023/04/07 06:13:51;;;;;;;13.77;8.27;;;9.90;1.00;;;;;;4951209;29;20253;-81
2023/04/07 06:16:19;;;;;;;13.83;8.70;;;9.90;1.00;;;;;;4946587;29;20445;-82
2023/04/07 06:18:45;;;;;;;12.07;7.80;;;10.00;1.00;;;;;;4945865;29;20229;-81
2023/04/07 06:21:10;;;;;;;15.30;8.40;;;9.90;1.00;;;;;;4944642;29;20446;-80
2023/04/07 06:23:36;;;;;;;16.80;8.30;;;9.90;1.00;;;;;;4940666;29;20202;-79
2023/04/07 06:26:04;;;;;;;12.63;8.47;;;9.90;1.00;;;;;;4944923;29;20202;-79
2023/04/07 06:28:30;;;;;;;15.07;8.40;;;9.90;1.00;;;;;;4937378;29;20217;-79
2023/04/07 06:30:55;;;;;;;18.80;8.80;;;9.90;1.00;;;;;;4933358;29;20445;-79
2023/04/07 06:33:24;;;;;;;16.47;10.13;;;9.90;1.00;;;;;;4937380;29;20237;-81
2023/04/07 06:35:50;;;;;;;15.93;9.00;;;10.00;1.00;;;;;;4932180;29;20182;-79
2023/04/07 06:38:16;;;;;;;13.77;8.77;;;10.00;1.00;;;;;;4932564;29;20496;-79
2023/04/07 06:40:41;;;;;;;14.43;8.60;;;10.00;1.00;;;;;;4933421;29;20445;-80
2023/04/07 06:43:07;;;;;;;13.70;8.10;;;10.10;1.00;;;;;;4944860;28;20194;-80
2023/04/07 06:45:32;;;;;;;15.23;8.60;;;10.10;1.00;;;;;;4941651;28;20241;-79
2023/04/07 06:47:58;;;;;;;14.60;10.40;;;10.10;1.00;;;;;;4936038;29;20221;-79
2023/04/07 06:50:23;;;;;;;16.93;8.50;;;10.10;1.00;;;;;;4935280;29;20201;-79
2023/04/07 06:52:52;;;;;;;17.53;9.43;;;10.10;1.00;;;;;;4932394;29;20288;-79
2023/04/07 06:55:18;;;;;;;14.50;9.00;;;10.10;1.00;;;;;;4937125;29;20189;-79
2023/04/07 06:57:43;;;;;;;15.57;8.50;;;10.20;1.00;;;;;;4926494;29;20460;-79
2023/04/07 07:00:09;;;;;;;20.63;9.40;;;10.30;1.00;;;;;;4939040;29;20208;-79
2023/04/07 07:02:35;;;;;;;13.17;9.53;;;10.30;1.00;;;;;;4936866;29;20190;-79
2023/04/07 07:05:02;;;;;;;14.27;8.73;;;10.40;1.00;;;;;;4930807;29;20489;-80
2023/04/07 07:07:28;;;;;;;13.30;8.90;;;10.50;1.00;;;;;;4935382;29;20245;-79
2023/04/07 07:09:54;;;;;;;13.60;8.00;;;10.60;1.00;;;;;;4933190;29;20437;-79
2023/04/07 07:12:19;;;;;;;13.50;9.00;;;10.70;99.90;;;;;;4935001;29;20190;-79
2023/04/07 07:14:45;;;;;;;12.97;8.10;;;10.80;99.90;;;;;;4939160;29;20185;-79
2023/04/07 07:17:10;;;;;;;14.13;8.03;;;10.80;99.90;;;;;;4935509;29;20178;-80
2023/04/07 07:19:39;;;;;;;14.80;8.17;;;10.90;99.90;;;;;;4937044;29;20186;-80
2023/04/07 07:22:07;;;;;;;11.83;8.20;;;10.90;99.90;;;;;;4941967;29;20188;-80
2023/04/07 07:24:35;;;;;;;15.13;7.73;;;11.00;99.90;;;;;;4934199;29;20993;-81
2023/04/07 07:27:02;;;;;;;12.40;7.80;;;11.10;99.90;;;;;;4935911;29;20438;-80
2023/04/07 07:29:30;;;;;;;14.13;8.67;;;11.20;99.90;;;;;;4943280;29;20462;-81
2023/04/07 07:31:56;;;;;;;15.37;8.30;;;11.20;99.90;;;;;;4958012;28;20448;-81
2023/04/07 07:34:27;;;;;;;16.50;8.20;;;11.20;99.90;;;;;;4941289;29;20466;-81
2023/04/07 07:36:52;;;;;;;12.73;7.70;;;11.20;86.30;;;;;;4936689;29;20179;-82
2023/04/07 07:39:18;;;;;;;15.20;8.30;;;11.20;1.00;;;;;;4937429;29;20458;-82
2023/04/07 07:41:44;;;;;;;16.40;9.07;;;11.10;1.00;;;;;;4937447;29;20529;-82
2023/04/07 07:44:09;;;;;;;18.93;8.83;;;11.00;1.00;;;;;;4944094;29;20189;-81
2023/04/07 07:46:35;;;;;;;16.77;9.20;;;11.00;17.60;;;;;;4940493;29;20273;-81
2023/04/07 07:49:08;;;;;;;16.03;9.60;;;10.90;99.90;;;;;;4946463;29;20210;-81
2023/04/07 07:51:37;;;;;;;16.70;10.30;;;10.90;99.90;;;;;;4944774;29;20294;-82
2023/04/07 07:54:03;;;;;;;24.70;10.97;;;10.90;99.90;;;;;;4941568;29;20469;-81
2023/04/07 07:56:28;;;;;;;18.60;11.17;;;10.90;99.90;;;;;;4957146;28;20445;-82
2023/04/07 07:58:54;;;;;;;19.00;12.80;;;11.00;99.90;;;;;;4939623;29;20202;-82
2023/04/07 08:01:23;;;;;;;17.60;11.70;;;10.90;99.90;;;;;;4940065;29;20204;-81
2023/04/07 08:03:49;;;;;;;26.17;14.17;;;10.90;99.90;;;;;;4940737;29;20270;-82
2023/04/07 08:06:17;;;;;;;21.93;13.53;;;10.90;99.90;;;;;;4940552;29;20481;-83
2023/04/07 08:08:47;;;;;;;23.80;12.10;;;10.90;99.90;;;;;;4935680;29;20213;-81
2023/04/07 08:11:15;;;;;;;22.33;12.67;;;10.90;99.90;;;;;;4939859;29;20488;-82
2023/04/07 08:13:45;;;;;;;21.63;13.50;;;11.00;99.90;;;;;;4943257;29;20469;-83
2023/04/07 08:16:10;;;;;;;28.80;15.30;;;11.10;99.90;;;;;;4947204;29;20448;-83
2023/04/07 08:18:41;;;;;;;24.07;15.50;;;11.20;21.40;;;;;;4942381;29;20465;-82
2023/04/07 08:21:07;;;;;;;25.50;15.90;;;11.30;1.00;;;;;;4960779;28;20213;-83
2023/04/07 08:23:32;;;;;;;27.00;15.47;;;11.30;1.00;;;;;;4944857;29;20437;-82
2023/04/07 08:25:58;;;;;;;22.57;14.43;;;11.30;1.00;;;;;;4941844;29;20194;-82
2023/04/07 08:31:34;;;;;;;24.97;15.10;;;11.30;1.00;;;;;;4941018;28;20198;-81
2023/04/07 08:33:59;;;;;;;30.13;16.20;;;11.30;1.00;;;;;;4941787;29;20555;-82
2023/04/07 08:36:27;;;;;;;27.63;15.30;;;11.30;99.90;;;;;;4942579;29;20444;-80
2023/04/07 08:38:53;;;;;;;28.67;16.70;;;11.30;99.90;;;;;;4935832;29;20240;-82
2023/04/07 08:41:39;;;;;;;27.70;17.07;;;11.40;1.00;;;;;;4940764;29;20458;-83
2023/04/07 08:44:12;;;;;;;28.00;17.40;;;11.40;99.90;;;;;;4939257;29;20188;-80
2023/04/07 08:46:43;;;;;;;33.10;17.50;;;11.50;99.90;;;;;;4931266;29;20498;-82
2023/04/07 08:49:21;;;;;;;39.77;18.80;;;11.70;99.90;;;;;;4937782;29;20466;-81
2023/04/07 08:51:57;;;;;;;31.73;18.10;;;11.70;1.00;;;;;;4938923;29;20438;-82
2023/04/07 08:54:23;;;;;;;26.97;16.90;;;11.70;1.00;;;;;;4956355;28;20476;-81
2023/04/07 08:56:52;;;;;;;28.17;16.47;;;12.00;1.00;;;;;;4944981;29;20441;-82
2023/04/07 08:59:20;;;;;;;26.73;16.13;;;12.10;99.90;;;;;;4939320;29;20545;-82
2023/04/07 09:01:46;;;;;;;25.67;16.07;;;12.10;99.90;;;;;;4941216;29;20488;-81
2023/04/07 09:04:12;;;;;;;23.90;14.80;;;12.20;99.90;;;;;;4939919;29;20452;-81
2023/04/07 09:06:38;;;;;;;31.60;17.97;;;12.20;99.90;;;;;;4935079;29;21012;-81
2023/04/07 09:09:06;;;;;;;26.00;16.07;;;12.30;83.00;;;;;;4929335;29;20474;-82
2023/04/07 09:11:36;;;;;;;24.57;14.90;;;12.30;1.00;;;;;;4933194;29;20197;-81
2023/04/07 09:14:01;;;;;;;25.03;17.03;;;12.30;1.00;;;;;;4953173;29;20487;-82
2023/04/07 09:16:28;;;;;;;23.20;14.97;;;12.40;99.90;;;;;;4939113;29;20469;-83
2023/04/07 09:18:54;;;;;;;27.57;15.80;;;12.40;1.00;;;;;;4942779;29;20213;-82
2023/04/07 09:21:19;;;;;;;29.80;16.10;;;12.40;1.00;;;;;;4934005;29;20445;-82
2023/04/07 09:23:46;;;;;;;28.33;16.57;;;12.30;1.00;;;;;;4939642;29;20217;-82
2023/04/07 09:26:25;;;;;;;25.90;16.50;;;12.10;88.20;;;;;;4946316;29;20194;-81
2023/04/07 09:28:56;;;;;;;24.97;14.60;;;12.00;1.00;;;;;;4948950;29;20492;-82
2023/04/07 09:31:42;;;;;;;27.43;14.40;;;12.00;1.00;;;;;;4941171;29;20456;-82
2023/04/07 09:34:26;;;;;;;25.70;14.90;;;12.10;1.00;;;;;;4943409;29;20484;-81
2023/04/07 09:36:52;;;;;;;28.13;15.77;;;12.20;99.90;;;;;;4949714;28;20453;-81
2023/04/07 09:39:18;;;;;;;25.87;15.47;;;12.30;99.90;;;;;;4948564;29;20672;-83
2023/04/07 09:41:44;;;;;;;27.90;15.23;;;12.40;1.00;;;;;;4945527;29;20422;-82
2023/04/07 09:44:09;;;;;;;29.17;15.50;;;12.50;99.90;;;;;;4940136;29;20439;-82
2023/04/07 09:46:35;;;;;;;25.20;13.70;;;12.70;1.00;;;;;;4940812;29;20207;-81
2023/04/07 09:49:04;;;;;;;21.77;14.03;;;12.80;1.00;;;;;;4943087;29;20234;-82
2023/04/07 09:51:29;;;;;;;21.00;13.17;;;12.90;1.00;;;;;;4947947;29;20192;-83
2023/04/07 09:53:55;;;;;;;21.47;12.67;;;12.90;99.90;;;;;;4941489;29;21065;-81
2023/04/07 09:56:21;;;;;;;16.63;11.33;;;12.70;1.00;;;;;;4939708;29;20185;-82
2023/04/07 09:58:50;;;;;;;22.33;13.00;;;12.50;1.00;;;;;;4937790;29;20265;-81
2023/04/07 10:01:16;;;;;;;20.10;12.07;;;12.40;1.00;;;;;;4942219;29;21012;-81
2023/04/07 10:03:42;;;;;;;21.80;11.60;;;12.20;99.90;;;;;;4940425;29;20498;-82
2023/04/07 10:06:08;;;;;;;23.27;12.50;;;12.10;99.90;;;;;;4944789;29;20430;-82
2023/04/07 10:08:36;;;;;;;19.77;11.97;;;12.10;1.00;;;;;;4954487;29;20464;-82
2023/04/07 10:11:02;;;;;;;21.87;12.27;;;12.20;1.00;;;;;;4941424;29;20189;-81
2023/04/07 10:13:29;;;;;;;22.30;12.50;;;12.30;99.90;;;;;;4944772;29;20477;-81
2023/04/07 10:15:55;;;;;;;19.40;11.80;;;12.40;99.90;;;;;;4949183;29;20464;-82
2023/04/07 10:18:25;;;;;;;23.20;12.80;;;12.50;1.00;;;;;;4945895;29;20461;-81
2023/04/07 10:20:52;;;;;;;19.13;11.80;;;12.60;1.00;;;;;;4945093;29;20185;-80
2023/04/07 10:23:24;;;;;;;17.50;11.90;;;12.80;99.90;;;;;;4944749;29;20533;-82
2023/04/07 10:25:52;;;;;;;18.97;11.63;;;12.90;99.90;;;;;;4946249;29;20528;-82
2023/04/07 10:28:20;;;;;;;19.37;12.63;;;13.00;1.90;;;;;;4935876;29;20494;-82
2023/04/07 10:30:47;;;;;;;18.30;12.60;;;13.00;1.00;;;;;;4937161;29;20469;-82
2023/04/07 10:33:12;;;;;;;21.10;12.30;;;13.00;1.00;;;;;;4930909;29;20474;-82
2023/04/07 10:36:05;;;;;;;20.77;12.40;;;12.80;1.00;;;;;;4938639;29;20440;-82
2023/04/07 10:38:31;;;;;;;21.40;13.87;;;12.60;1.00;;;;;;4937753;29;20442;-82
2023/04/07 10:40:57;;;;;;;27.93;13.63;;;12.50;99.90;;;;;;4943796;29;20487;-83
2023/04/07 10:43:37;;;;;;;17.07;11.60;;;12.30;99.90;;;;;;4936176;29;20426;-82
2023/04/07 10:46:03;;;;;;;17.17;11.73;;;12.30;99.90;;;;;;4930306;29;20197;-82
2023/04/07 10:48:31;;;;;;;21.43;11.90;;;12.30;99.90;;;;;;4934324;29;20446;-82
2023/04/07 10:51:03;;;;;;;20.43;12.70;;;12.30;99.90;;;;;;4933469;29;20242;-82
2023/04/07 10:53:30;;;;;;;18.50;11.50;;;12.40;1.00;;;;;;4940305;29;20497;-82
2023/04/07 10:55:56;;;;;;;16.00;11.30;;;12.60;99.90;;;;;;4934040;29;20453;-83
2023/04/07 10:58:23;;;;;;;17.20;11.40;;;12.80;99.90;;;;;;4939318;29;20500;-83
2023/04/07 11:01:07;;;;;;;18.77;10.73;;;13.00;99.90;;;;;;4934024;29;20489;-82
2023/04/07 11:03:35;;;;;;;16.20;11.00;;;13.20;1.00;;;;;;4942280;29;20453;-83
2023/04/07 11:06:06;;;;;;;17.23;11.40;;;13.40;1.00;;;;;;4938491;29;20486;-81
2023/04/07 11:08:37;;;;;;;16.47;10.40;;;13.50;99.90;;;;;;4937830;29;20465;-83
2023/04/07 11:11:08;;;;;;;15.70;10.37;;;13.60;99.90;;;;;;4948367;29;20537;-83
2023/04/07 11:14:03;;;;;;;15.20;10.40;;;13.60;99.90;;;;;;4950176;29;20469;-83
2023/04/07 11:16:40;;;;;;;21.33;11.57;;;13.70;95.60;;;;;;4945021;29;20437;-83
2023/04/07 11:19:06;;;;;;;16.03;10.47;;;13.60;99.40;;;;;;4949563;29;20467;-83
2023/04/07 11:21:31;;;;;;;14.67;9.67;;;13.50;29.80;;;;;;4944513;29;20504;-81
2023/04/07 11:23:57;;;;;;;15.73;11.00;;;13.40;47.60;;;;;;4948595;29;20197;-82
2023/04/07 11:26:23;;;;;;;14.90;9.90;;;13.30;99.90;;;;;;4950319;29;20735;-83
2023/04/07 11:28:54;;;;;;;14.53;10.10;;;13.30;99.90;;;;;;4963419;28;20207;-82
2023/04/07 11:31:30;;;;;;;18.80;9.77;;;13.50;99.90;;;;;;4948492;29;20190;-82
2023/04/07 11:34:01;;;;;;;13.53;9.83;;;13.80;46.20;;;;;;4941353;29;20529;-82
2023/04/07 11:36:31;;;;;;;18.10;9.40;;;14.20;1.00;;;;;;4934184;29;20452;-81
2023/04/07 11:38:57;;;;;;;14.63;10.57;;;14.40;1.00;;;;;;4945405;29;20456;-82
2023/04/07 11:41:29;;;;;;;14.93;9.77;;;14.50;1.00;;;;;;4945646;29;20423;-83
2023/04/07 11:44:04;;;;;;;12.17;10.20;;;14.40;1.00;;;;;;4950134;29;20457;-83
2023/04/07 11:46:29;;;;;;;16.93;8.77;;;14.10;1.00;;;;;;4940966;29;20507;-82
2023/04/07 11:49:11;;;;;;;13.63;8.50;;;13.90;1.00;;;;;;4947275;29;20469;-80
2023/04/07 11:51:37;;;;;;;12.90;8.90;;;13.80;1.00;;;;;;4947448;29;20185;-80
2023/04/07 11:54:03;;;;;;;11.43;8.30;;;13.50;1.00;;;;;;4943785;29;20481;-82
2023/04/07 11:56:29;;;;;;;13.10;8.87;;;13.50;1.00;;;;;;4936732;29;20219;-83
2023/04/07 11:58:55;;;;;;;12.43;8.47;;;13.50;1.00;;;;;;4949022;29;20525;-84
2023/04/07 12:01:23;;;;;;;14.07;8.13;;;13.50;1.00;;;;;;4932279;29;20440;-83
2023/04/07 12:04:03;;;;;;;12.80;8.50;;;13.60;1.00;;;;;;4946023;29;20514;-82
2023/04/07 12:06:33;;;;;;;16.27;8.87;;;13.60;1.00;;;;;;4947440;29;20429;-83
2023/04/07 12:09:00;;;;;;;14.93;8.83;;;13.60;1.00;;;;;;4941740;29;20462;-82
2023/04/07 12:11:26;;;;;;;11.30;8.10;;;13.70;1.00;;;;;;4940244;29;20442;-82
2023/04/07 12:13:52;;;;;;;15.63;8.63;;;13.70;1.00;;;;;;4942114;29;20469;-82
2023/04/07 12:16:20;;;;;;;12.60;7.73;;;13.70;1.00;;;;;;4947362;29;20269;-83
2023/04/07 12:18:46;;;;;;;10.23;7.47;;;13.70;1.00;;;;;;4957833;29;20458;-82
2023/04/07 12:21:11;;;;;;;9.30;8.30;;;13.60;1.00;;;;;;4934934;29;20429;-82
2023/04/07 12:23:37;;;;;;;9.97;7.37;;;13.50;1.00;;;;;;4946688;29;20193;-83
2023/04/07 12:26:02;;;;;;;12.77;8.07;;;13.60;1.00;;;;;;4942867;29;20182;-82
2023/04/07 12:28:28;;;;;;;13.13;7.80;;;13.70;1.00;;;;;;4936001;29;20209;-82
2023/04/07 12:30:54;;;;;;;10.93;7.70;;;13.90;1.00;;;;;;4946993;29;20208;-82
2023/04/07 12:33:20;;;;;;;9.80;8.10;;;14.10;1.00;;;;;;4939624;29;20625;-82
2023/04/07 12:35:46;;;;;;;9.50;7.53;;;14.30;1.00;;;;;;4936334;29;20428;-83
2023/04/07 12:38:12;;;;;;;12.23;9.67;;;14.30;1.00;;;;;;4954138;29;20518;-82
2023/04/07 12:40:37;;;;;;;20.07;9.50;;;14.10;1.00;;;;;;4948041;29;20689;-83
2023/04/07 12:43:04;;;;;;;22.47;11.43;;;13.90;1.00;;;;;;4939052;29;20200;-81
2023/04/07 12:45:30;;;;;;;17.60;11.50;;;13.60;1.00;;;;;;4932157;29;20234;-80
2023/04/07 12:47:56;;;;;;;15.63;10.13;;;13.40;1.00;;;;;;4942256;29;20458;-82